Ron Hull — WDD5737 — position and weather

sailwx.info

Track history (hours):
 
Tides and Currents Weather Stations Pressure Air Temp Water Temp Dewpoint Dewpoint Depression Visibility Wind Speed Wind Dir Waves Ship Positions

Ron Hull

Owner: Florida Marine, LLC, Mandeville, LA. More information available from US FCC via Universal Licensing System and Coast Guard Vessel Documentation Center.

Last reported at 2017-Sep-21 17:35 UTC. Time now 2017-Sep-22 00:52 UTC.
Position N 30°04' W 093°41'.

Length 27 m; draft 3.2 m.

Type: Towing. MMSI: 367162840.

Date/timePositionNaut miles runAvg speedWind from/ knotsBaromVisibWave heightAir tempDewpointWater temp
2017-Sep-21 17:35N 30°04' W 093°41'1 8.0
2017-Sep-21 17:29N 30°04' W 093°40'4 7.7
2017-Sep-21 16:59N 30°04' W 093°35'4 7.1
2017-Sep-21 16:24N 30°04' W 093°31'3 7.2
2017-Sep-21 16:00N 30°04' W 093°27'4 7.2
2017-Sep-21 15:30N 30°04' W 093°23'3 5.0
2017-Sep-21 15:00N 30°04' W 093°20'0 0.5
2017-Sep-21 14:30N 30°05' W 093°20'0 0.0
2017-Sep-21 14:01N 30°05' W 093°20'0 0.2
2017-Sep-21 13:30N 30°05' W 093°20'0 0.8
2017-Sep-21 13:00N 30°05' W 093°20'2 3.3
2017-Sep-21 12:30N 30°06' W 093°18'2 4.3
2017-Sep-21 12:00N 30°04' W 093°16'2 4.3
2017-Sep-21 11:30N 30°02' W 093°15'2 4.9
2017-Sep-21 11:00N 30°00' W 093°14'2 3.9
2017-Sep-21 10:30N 29°59' W 093°12'3 5.9
2017-Sep-21 10:00N 29°56' W 093°10'3 5.5
2017-Sep-21 09:30N 29°56' W 093°07'3 5.7
2017-Sep-21 09:00N 29°56' W 093°03'3 5.1
2017-Sep-21 08:22N 29°56' W 092°60'34 4.2
2017-Sep-21 00:18N 29°51' W 092°21'2 4.9
2017-Sep-20 23:50N 29°50' W 092°18'2 4.8
2017-Sep-20 23:30N 29°49' W 092°17'2 4.9
2017-Sep-20 23:00N 29°48' W 092°15'2 4.8
2017-Sep-20 22:30N 29°47' W 092°12'1 2.9
2017-Sep-20 22:00N 29°47' W 092°10'3 5.6
2017-Sep-20 21:30N 29°47' W 092°07'3 5.9
2017-Sep-20 21:00N 29°48' W 092°04'3 5.6
2017-Sep-20 20:30N 29°49' W 092°01'56 4.2
2017-Sep-20 07:05N 29°36' W 090°58'2 6.6
2017-Sep-20 06:49N 29°34' W 090°57'2 7.0
2017-Sep-20 06:30N 29°33' W 090°55'3 6.6
2017-Sep-20 06:00N 29°32' W 090°51'3 6.9
2017-Sep-20 05:30N 29°32' W 090°47'3 5.7
2017-Sep-20 05:00N 29°34' W 090°44'2 4.9
2017-Sep-20 04:30N 29°36' W 090°43'2 4.0
2017-Sep-20 04:00N 29°36' W 090°40'3 6.3
2017-Sep-20 03:30N 29°35' W 090°37'3 5.9
2017-Sep-20 03:00N 29°34' W 090°34'3 6.6
2017-Sep-20 02:30N 29°34' W 090°30'5 6.7
2017-Sep-20 01:50N 29°33' W 090°25'  
Track history (hours):
 
Tides and Currents Weather Stations Pressure Air Temp Water Temp Dewpoint Dewpoint Depression Visibility Wind Speed Wind Dir Waves Ship Positions

Ron Hull

Owner: Florida Marine, LLC, Mandeville, LA. More information available from US FCC via Universal Licensing System and Coast Guard Vessel Documentation Center.

Last reported at 2017-Sep-21 17:35 UTC. Time now 2017-Sep-22 00:52 UTC.
Position N 30°04' W 093°41'.

Length 27 m; draft 3.2 m.

Type: Towing. MMSI: 367162840.

Date/timePositionNaut miles runAvg speedWind from/ knotsBaromVisibWave heightAir tempDewpointWater temp
2017-Sep-21 17:35N 30°04' W 093°41'1 8.0
2017-Sep-21 17:29N 30°04' W 093°40'4 7.7
2017-Sep-21 16:59N 30°04' W 093°35'4 7.1
2017-Sep-21 16:24N 30°04' W 093°31'3 7.2
2017-Sep-21 16:00N 30°04' W 093°27'4 7.2
2017-Sep-21 15:30N 30°04' W 093°23'3 5.0
2017-Sep-21 15:00N 30°04' W 093°20'0 0.5
2017-Sep-21 14:30N 30°05' W 093°20'0 0.0
2017-Sep-21 14:01N 30°05' W 093°20'0 0.2
2017-Sep-21 13:30N 30°05' W 093°20'0 0.8
2017-Sep-21 13:00N 30°05' W 093°20'2 3.3
2017-Sep-21 12:30N 30°06' W 093°18'2 4.3
2017-Sep-21 12:00N 30°04' W 093°16'2 4.3
2017-Sep-21 11:30N 30°02' W 093°15'2 4.9
2017-Sep-21 11:00N 30°00' W 093°14'2 3.9
2017-Sep-21 10:30N 29°59' W 093°12'3 5.9
2017-Sep-21 10:00N 29°56' W 093°10'3 5.5
2017-Sep-21 09:30N 29°56' W 093°07'3 5.7
2017-Sep-21 09:00N 29°56' W 093°03'3 5.1
2017-Sep-21 08:22N 29°56' W 092°60'34 4.2
2017-Sep-21 00:18N 29°51' W 092°21'2 4.9
2017-Sep-20 23:50N 29°50' W 092°18'2 4.8
2017-Sep-20 23:30N 29°49' W 092°17'2 4.9
2017-Sep-20 23:00N 29°48' W 092°15'2 4.8
2017-Sep-20 22:30N 29°47' W 092°12'1 2.9
2017-Sep-20 22:00N 29°47' W 092°10'3 5.6
2017-Sep-20 21:30N 29°47' W 092°07'3 5.9
2017-Sep-20 21:00N 29°48' W 092°04'3 5.6
2017-Sep-20 20:30N 29°49' W 092°01'56 4.2
2017-Sep-20 07:05N 29°36' W 090°58'2 6.6
2017-Sep-20 06:49N 29°34' W 090°57'2 7.0
2017-Sep-20 06:30N 29°33' W 090°55'3 6.6
2017-Sep-20 06:00N 29°32' W 090°51'3 6.9
2017-Sep-20 05:30N 29°32' W 090°47'3 5.7
2017-Sep-20 05:00N 29°34' W 090°44'2 4.9
2017-Sep-20 04:30N 29°36' W 090°43'2 4.0
2017-Sep-20 04:00N 29°36' W 090°40'3 6.3
2017-Sep-20 03:30N 29°35' W 090°37'3 5.9
2017-Sep-20 03:00N 29°34' W 090°34'3 6.6
2017-Sep-20 02:30N 29°34' W 090°30'5 6.7
2017-Sep-20 01:50N 29°33' W 090°25'  

Dump ship's entire track history